Autumn — V7QA6 — position and weather

sailwx.info

Track history (hours):
 
Tides and Currents Weather Stations Pressure Air Temp Water Temp Dewpoint Dewpoint Depression Visibility Wind Speed Wind Dir Waves Ship Positions

Autumn

Last reported at 2014-Jul-24 01:30 UTC. Time now 2014-Jul-24 04:25 UTC.
Position N 51°43' W 005°49'.

Length 129 m; draft 8.4 m.

Type: Tanker. MMSI: 538003323.

Date/timePositionNaut miles runAvg speedWind from/ knotsBaromVisibWave heightAir tempDewpointWater temp
2014-Jul-24 01:30N 51°43' W 005°49'1812.9
2014-Jul-24 00:06N 51°25' W 005°53'2212.9
2014-Jul-23 22:26N 51°03' W 005°53'1213.1
2014-Jul-23 21:33N 50°52' W 005°53'1313.0
2014-Jul-23 20:33N 50°39' W 005°53'1313.1
2014-Jul-23 19:33N 50°26' W 005°53'1312.7
2014-Jul-23 18:30N 50°12' W 005°54'17311.6
2014-Jul-23 03:34N 50°30' W 001°23'1212.0
2014-Jul-23 02:34N 50°35' W 001°06'9 9.0
2014-Jul-23 01:33N 50°44' W 001°03'1110.7
2014-Jul-23 00:34N 50°48' W 001°18'3 2.9
2014-Jul-22 23:33N 50°51' W 001°20'0 0.0
2014-Jul-22 22:32N 50°51' W 001°20'0 0.0
2014-Jul-22 21:32N 50°51' W 001°20'0 0.0
2014-Jul-22 20:32N 50°51' W 001°20'0 0.0
2014-Jul-22 19:32N 50°51' W 001°20'0 0.0
2014-Jul-22 18:32N 50°51' W 001°20'0 0.0
2014-Jul-22 17:32N 50°51' W 001°20'0 0.0
2014-Jul-22 16:32N 50°51' W 001°20'0 0.0
2014-Jul-22 15:32N 50°51' W 001°20'0 0.0
2014-Jul-22 14:32N 50°51' W 001°20'0 0.0
2014-Jul-22 13:32N 50°51' W 001°20'0 0.0
2014-Jul-22 12:32N 50°51' W 001°20'0 0.0
2014-Jul-22 11:32N 50°51' W 001°20'0 0.0
2014-Jul-22 10:32N 50°51' W 001°20'0 0.0
2014-Jul-22 09:32N 50°51' W 001°20'0 0.0
2014-Jul-22 08:32N 50°51' W 001°20'0 0.0
2014-Jul-22 07:32N 50°51' W 001°20'0 0.0
2014-Jul-22 06:32N 50°51' W 001°20'0 0.0
2014-Jul-22 05:32N 50°51' W 001°20'0 0.0
2014-Jul-22 04:32N 50°51' W 001°20'0 0.0
2014-Jul-22 03:32N 50°51' W 001°20'0 0.0
2014-Jul-22 02:32N 50°51' W 001°20'0 0.0
2014-Jul-22 01:32N 50°51' W 001°20'0 0.0
2014-Jul-22 00:32N 50°51' W 001°20'4 4.1
2014-Jul-21 23:33N 50°47' W 001°18'10 9.7
2014-Jul-21 22:33N 50°44' W 001°04'7 6.6
2014-Jul-21 21:33N 50°37' W 001°04'1 0.7
2014-Jul-21 20:32N 50°37' W 001°05'0 0.0
2014-Jul-21 20:14N 50°37' W 001°05'0 0.0
2014-Jul-21 19:32N 50°37' W 001°05'0 0.2
2014-Jul-21 18:32N 50°37' W 001°04'0 0.0
2014-Jul-21 17:26N 50°37' W 001°04'0 0.0
2014-Jul-21 16:32N 50°37' W 001°04'0 0.0
2014-Jul-21 15:32N 50°37' W 001°04'0 0.0
2014-Jul-21 14:29N 50°37' W 001°04'0 0.0
2014-Jul-21 13:32N 50°37' W 001°04'0 0.1
2014-Jul-21 12:32N 50°37' W 001°04'0 0.1
2014-Jul-21 11:32N 50°37' W 001°04'0 0.0
2014-Jul-21 10:32N 50°37' W 001°05'0 0.0
2014-Jul-21 09:32N 50°37' W 001°05'0 0.0
2014-Jul-21 08:26N 50°37' W 001°05'0 0.0
2014-Jul-21 07:32N 50°37' W 001°05'0 0.1
2014-Jul-21 06:32N 50°37' W 001°04'0 0.1
2014-Jul-21 05:32N 50°37' W 001°04'0 0.1
2014-Jul-21 04:32N 50°37' W 001°04'0 0.0
2014-Jul-21 03:32N 50°37' W 001°04'0 0.0
2014-Jul-21 02:32N 50°37' W 001°04'0 0.0
2014-Jul-21 01:32N 50°37' W 001°04'0 0.0
2014-Jul-21 00:29N 50°37' W 001°04'0 0.0
2014-Jul-20 23:32N 50°37' W 001°04'0 0.1
2014-Jul-20 22:32N 50°37' W 001°04'0 0.0
2014-Jul-20 21:32N 50°37' W 001°05'0 0.0
2014-Jul-20 20:32N 50°37' W 001°05'0 0.0
2014-Jul-20 19:32N 50°37' W 001°05'0 0.0
2014-Jul-20 18:32N 50°37' W 001°05'0 0.2
2014-Jul-20 17:32N 50°37' W 001°04'0 0.0
2014-Jul-20 16:32N 50°37' W 001°04'0 0.0
2014-Jul-20 15:32N 50°37' W 001°04'0 0.0
2014-Jul-20 14:32N 50°37' W 001°04'0 0.0
2014-Jul-20 13:32N 50°37' W 001°04'0 0.0
2014-Jul-20 12:32N 50°37' W 001°04'0 0.0
2014-Jul-20 11:29N 50°37' W 001°04'0 0.1
2014-Jul-20 10:32N 50°37' W 001°05'0 0.0
2014-Jul-20 09:32N 50°37' W 001°05'0 0.0
2014-Jul-20 08:32N 50°37' W 001°05'0 0.0
2014-Jul-20 07:32N 50°37' W 001°05'0 0.0
2014-Jul-20 06:32N 50°37' W 001°05'0 0.0
2014-Jul-20 05:32N 50°37' W 001°04'0 0.1
2014-Jul-20 04:32N 50°37' W 001°04'0 0.0
2014-Jul-20 03:32N 50°37' W 001°04'0 0.0
2014-Jul-20 02:32N 50°37' W 001°04'0 0.0
2014-Jul-20 01:32N 50°37' W 001°04'0 0.0
2014-Jul-20 00:32N 50°37' W 001°04'0 0.0
2014-Jul-19 23:32N 50°37' W 001°04'0 0.0
2014-Jul-19 22:32N 50°37' W 001°04'0 0.1
2014-Jul-19 21:32N 50°37' W 001°04'0 0.0
2014-Jul-19 20:32N 50°37' W 001°05'0 0.0
2014-Jul-19 19:29N 50°37' W 001°04'0 0.0
2014-Jul-19 18:32N 50°37' W 001°04'0 0.0
2014-Jul-19 17:32N 50°37' W 001°04'0 0.1
2014-Jul-19 16:26N 50°37' W 001°04'0 0.1
2014-Jul-19 15:32N 50°37' W 001°04'0 0.0
2014-Jul-19 14:32N 50°37' W 001°04'0 0.0
2014-Jul-19 13:32N 50°37' W 001°04'0 0.0
2014-Jul-19 12:32N 50°37' W 001°04'0 0.0
2014-Jul-19 11:32N 50°37' W 001°04'0 0.1
2014-Jul-19 10:32N 50°37' W 001°04'0 0.1
2014-Jul-19 09:32N 50°37' W 001°05'4 3.9
2014-Jul-19 08:33N 50°37' W 000°59'1515.4
2014-Jul-19 07:34N 50°35' W 000°35'2914.6
2014-Jul-19 05:33N 50°34' E 000°11'1413.8
2014-Jul-19 04:33N 50°37' E 000°32'1212.3
2014-Jul-19 03:33N 50°44' E 000°49'2512.6
2014-Jul-19 01:33N 51°00' E 001°19'1616.0
2014-Jul-19 00:34N 51°10' E 001°38'1615.6
2014-Jul-18 23:34N 51°23' E 001°53'1414.2
2014-Jul-18 22:33N 51°34' E 002°08'1313.1
2014-Jul-18 21:33N 51°44' E 002°21'5211.9
2014-Jul-18 17:09N 52°04' E 003°40'813.1
2014-Jul-18 16:33N 52°03' E 003°53'1212.5
2014-Jul-18 15:33N 51°57' E 004°11'6 5.2
2014-Jul-18 14:29N 51°53' E 004°17'0 0.0
2014-Jul-18 13:32N 51°53' E 004°17'0 0.0
2014-Jul-18 12:29N 51°53' E 004°17'0 0.0
2014-Jul-18 11:32N 51°53' E 004°17'0 0.0
2014-Jul-18 10:32N 51°53' E 004°17'0 0.0
2014-Jul-18 09:32N 51°53' E 004°17'0 0.0
2014-Jul-18 08:32N 51°53' E 004°17'0 0.0
2014-Jul-18 07:32N 51°53' E 004°17'0 0.0
2014-Jul-18 06:32N 51°53' E 004°17'0 0.0
2014-Jul-18 05:29N 51°53' E 004°17'0 0.0
2014-Jul-18 04:32N 51°53' E 004°17'0 0.0
2014-Jul-18 03:32N 51°53' E 004°17'0 0.0
2014-Jul-18 02:29N 51°53' E 004°17'0 0.0
2014-Jul-18 01:29N 51°53' E 004°17'0 0.0
2014-Jul-18 00:29N 51°53' E 004°17'0 0.0
2014-Jul-17 23:29N 51°53' E 004°17'0 0.0
2014-Jul-17 22:29N 51°53' E 004°17'0 0.0
2014-Jul-17 21:29N 51°53' E 004°17'0 0.0
2014-Jul-17 20:32N 51°53' E 004°17'0 0.0
2014-Jul-17 19:32N 51°53' E 004°17'0 0.0
2014-Jul-17 18:29N 51°53' E 004°17'0 0.0
2014-Jul-17 17:23N 51°53' E 004°17'0 0.0
2014-Jul-17 16:32N 51°53' E 004°17'0 0.0
2014-Jul-17 15:32N 51°53' E 004°17'0 0.0
2014-Jul-17 14:32N 51°53' E 004°17'0 0.0
2014-Jul-17 13:32N 51°53' E 004°17'0 0.0
2014-Jul-17 12:23N 51°53' E 004°17'0 0.0
2014-Jul-17 11:29N 51°53' E 004°17'0 0.0
2014-Jul-17 10:32N 51°53' E 004°17'0 0.0
2014-Jul-17 09:32N 51°53' E 004°17'0 0.0
2014-Jul-17 08:32N 51°53' E 004°17'0 0.0
2014-Jul-17 07:32N 51°53' E 004°17'0 0.0
2014-Jul-17 06:32N 51°53' E 004°17'0 0.0
2014-Jul-17 05:32N 51°53' E 004°17'0 0.0
2014-Jul-17 04:23N 51°53' E 004°17'0 0.0
2014-Jul-17 03:29N 51°53' E 004°17'0 0.0
2014-Jul-17 02:32N 51°53' E 004°17'0 0.0
2014-Jul-17 01:32N 51°53' E 004°17'0 0.0
2014-Jul-17 00:32N 51°53' E 004°17'0 0.0
2014-Jul-16 23:29N 51°53' E 004°17'0 0.0
2014-Jul-16 22:32N 51°53' E 004°17'0 0.0
2014-Jul-16 21:32N 51°53' E 004°17'0 0.0
2014-Jul-16 20:29N 51°53' E 004°17'0 0.0
2014-Jul-16 19:32N 51°53' E 004°17'0 0.0
2014-Jul-16 18:23N 51°53' E 004°17'0 0.0
2014-Jul-16 17:26N 51°53' E 004°17'0 0.0
2014-Jul-16 16:32N 51°53' E 004°17'0 0.0
2014-Jul-16 15:29N 51°53' E 004°17'0 0.0
2014-Jul-16 14:29N 51°53' E 004°17'0 0.0
2014-Jul-16 13:29N 51°53' E 004°17'0 0.0
2014-Jul-16 12:26N 51°53' E 004°17'0 0.0
2014-Jul-16 11:26N 51°53' E 004°17'0 0.0
2014-Jul-16 10:29N 51°53' E 004°17'1 1.4
2014-Jul-16 09:34N 51°54' E 004°18'8 8.2
2014-Jul-16 08:34N 51°58' E 004°07'1010.2
2014-Jul-16 07:33N 52°01' E 003°51'1010.2
2014-Jul-16 06:32N 52°08' E 003°39'3 0.9
2014-Jul-16 03:22N 52°10' E 003°37'0 0.2
2014-Jul-16 02:31N 52°10' E 003°37'0 0.0
2014-Jul-16 01:31N 52°10' E 003°37'1 1.3
2014-Jul-16 00:30N 52°09' E 003°35'1010.4
2014-Jul-15 23:33N 52°11' E 003°19'1413.7
2014-Jul-15 22:32N 52°25' E 003°14'1515.1
2014-Jul-15 21:33N 52°40' E 003°13'39112.6
2014-Jul-14 14:24N 57°48' E 010°16'1213.8
2014-Jul-14 13:34N 57°49' E 010°37'1313.3
2014-Jul-14 12:33N 57°46' E 011°01'1413.9
2014-Jul-14 11:33N 57°40' E 011°25'1010.2
2014-Jul-14 10:33N 57°39' E 011°44'5 5.1
2014-Jul-14 09:32N 57°41' E 011°52'0 0.0
2014-Jul-14 08:32N 57°41' E 011°52'0 0.0
2014-Jul-14 07:29N 57°41' E 011°52'0 0.0
2014-Jul-14 06:29N 57°41' E 011°52'0 0.0
2014-Jul-14 05:32N 57°41' E 011°52'0 0.0
2014-Jul-14 04:32N 57°41' E 011°52'0 0.0
2014-Jul-14 03:32N 57°41' E 011°52'0 0.0
2014-Jul-14 02:32N 57°41' E 011°52'0 0.0
2014-Jul-14 01:32N 57°41' E 011°52'  
Track history (hours):
 
Tides and Currents Weather Stations Pressure Air Temp Water Temp Dewpoint Dewpoint Depression Visibility Wind Speed Wind Dir Waves Ship Positions

Autumn

Last reported at 2014-Jul-24 01:30 UTC. Time now 2014-Jul-24 04:25 UTC.
Position N 51°43' W 005°49'.

Length 129 m; draft 8.4 m.

Type: Tanker. MMSI: 538003323.

Date/timePositionNaut miles runAvg speedWind from/ knotsBaromVisibWave heightAir tempDewpointWater temp
2014-Jul-24 01:30N 51°43' W 005°49'1812.9
2014-Jul-24 00:06N 51°25' W 005°53'2212.9
2014-Jul-23 22:26N 51°03' W 005°53'1213.1
2014-Jul-23 21:33N 50°52' W 005°53'1313.0
2014-Jul-23 20:33N 50°39' W 005°53'1313.1
2014-Jul-23 19:33N 50°26' W 005°53'1312.7
2014-Jul-23 18:30N 50°12' W 005°54'17311.6
2014-Jul-23 03:34N 50°30' W 001°23'1212.0
2014-Jul-23 02:34N 50°35' W 001°06'9 9.0
2014-Jul-23 01:33N 50°44' W 001°03'1110.7
2014-Jul-23 00:34N 50°48' W 001°18'3 2.9
2014-Jul-22 23:33N 50°51' W 001°20'0 0.0
2014-Jul-22 22:32N 50°51' W 001°20'0 0.0
2014-Jul-22 21:32N 50°51' W 001°20'0 0.0
2014-Jul-22 20:32N 50°51' W 001°20'0 0.0
2014-Jul-22 19:32N 50°51' W 001°20'0 0.0
2014-Jul-22 18:32N 50°51' W 001°20'0 0.0
2014-Jul-22 17:32N 50°51' W 001°20'0 0.0
2014-Jul-22 16:32N 50°51' W 001°20'0 0.0
2014-Jul-22 15:32N 50°51' W 001°20'0 0.0
2014-Jul-22 14:32N 50°51' W 001°20'0 0.0
2014-Jul-22 13:32N 50°51' W 001°20'0 0.0
2014-Jul-22 12:32N 50°51' W 001°20'0 0.0
2014-Jul-22 11:32N 50°51' W 001°20'0 0.0
2014-Jul-22 10:32N 50°51' W 001°20'0 0.0
2014-Jul-22 09:32N 50°51' W 001°20'0 0.0
2014-Jul-22 08:32N 50°51' W 001°20'0 0.0
2014-Jul-22 07:32N 50°51' W 001°20'0 0.0
2014-Jul-22 06:32N 50°51' W 001°20'0 0.0
2014-Jul-22 05:32N 50°51' W 001°20'0 0.0
2014-Jul-22 04:32N 50°51' W 001°20'0 0.0
2014-Jul-22 03:32N 50°51' W 001°20'0 0.0
2014-Jul-22 02:32N 50°51' W 001°20'0 0.0
2014-Jul-22 01:32N 50°51' W 001°20'0 0.0
2014-Jul-22 00:32N 50°51' W 001°20'4 4.1
2014-Jul-21 23:33N 50°47' W 001°18'10 9.7
2014-Jul-21 22:33N 50°44' W 001°04'7 6.6
2014-Jul-21 21:33N 50°37' W 001°04'1 0.7
2014-Jul-21 20:32N 50°37' W 001°05'0 0.0
2014-Jul-21 20:14N 50°37' W 001°05'0 0.0
2014-Jul-21 19:32N 50°37' W 001°05'0 0.2
2014-Jul-21 18:32N 50°37' W 001°04'0 0.0
2014-Jul-21 17:26N 50°37' W 001°04'0 0.0
2014-Jul-21 16:32N 50°37' W 001°04'0 0.0
2014-Jul-21 15:32N 50°37' W 001°04'0 0.0
2014-Jul-21 14:29N 50°37' W 001°04'0 0.0
2014-Jul-21 13:32N 50°37' W 001°04'0 0.1
2014-Jul-21 12:32N 50°37' W 001°04'0 0.1
2014-Jul-21 11:32N 50°37' W 001°04'0 0.0
2014-Jul-21 10:32N 50°37' W 001°05'0 0.0
2014-Jul-21 09:32N 50°37' W 001°05'0 0.0
2014-Jul-21 08:26N 50°37' W 001°05'0 0.0
2014-Jul-21 07:32N 50°37' W 001°05'0 0.1
2014-Jul-21 06:32N 50°37' W 001°04'0 0.1
2014-Jul-21 05:32N 50°37' W 001°04'0 0.1
2014-Jul-21 04:32N 50°37' W 001°04'0 0.0
2014-Jul-21 03:32N 50°37' W 001°04'0 0.0
2014-Jul-21 02:32N 50°37' W 001°04'0 0.0
2014-Jul-21 01:32N 50°37' W 001°04'0 0.0
2014-Jul-21 00:29N 50°37' W 001°04'0 0.0
2014-Jul-20 23:32N 50°37' W 001°04'0 0.1
2014-Jul-20 22:32N 50°37' W 001°04'0 0.0
2014-Jul-20 21:32N 50°37' W 001°05'0 0.0
2014-Jul-20 20:32N 50°37' W 001°05'0 0.0
2014-Jul-20 19:32N 50°37' W 001°05'0 0.0
2014-Jul-20 18:32N 50°37' W 001°05'0 0.2
2014-Jul-20 17:32N 50°37' W 001°04'0 0.0
2014-Jul-20 16:32N 50°37' W 001°04'0 0.0
2014-Jul-20 15:32N 50°37' W 001°04'0 0.0
2014-Jul-20 14:32N 50°37' W 001°04'0 0.0
2014-Jul-20 13:32N 50°37' W 001°04'0 0.0
2014-Jul-20 12:32N 50°37' W 001°04'0 0.0
2014-Jul-20 11:29N 50°37' W 001°04'0 0.1
2014-Jul-20 10:32N 50°37' W 001°05'0 0.0
2014-Jul-20 09:32N 50°37' W 001°05'0 0.0
2014-Jul-20 08:32N 50°37' W 001°05'0 0.0
2014-Jul-20 07:32N 50°37' W 001°05'0 0.0
2014-Jul-20 06:32N 50°37' W 001°05'0 0.0
2014-Jul-20 05:32N 50°37' W 001°04'0 0.1
2014-Jul-20 04:32N 50°37' W 001°04'0 0.0
2014-Jul-20 03:32N 50°37' W 001°04'0 0.0
2014-Jul-20 02:32N 50°37' W 001°04'0 0.0
2014-Jul-20 01:32N 50°37' W 001°04'0 0.0
2014-Jul-20 00:32N 50°37' W 001°04'0 0.0
2014-Jul-19 23:32N 50°37' W 001°04'0 0.0
2014-Jul-19 22:32N 50°37' W 001°04'0 0.1
2014-Jul-19 21:32N 50°37' W 001°04'0 0.0
2014-Jul-19 20:32N 50°37' W 001°05'0 0.0
2014-Jul-19 19:29N 50°37' W 001°04'0 0.0
2014-Jul-19 18:32N 50°37' W 001°04'0 0.0
2014-Jul-19 17:32N 50°37' W 001°04'0 0.1
2014-Jul-19 16:26N 50°37' W 001°04'0 0.1
2014-Jul-19 15:32N 50°37' W 001°04'0 0.0
2014-Jul-19 14:32N 50°37' W 001°04'0 0.0
2014-Jul-19 13:32N 50°37' W 001°04'0 0.0
2014-Jul-19 12:32N 50°37' W 001°04'0 0.0
2014-Jul-19 11:32N 50°37' W 001°04'0 0.1
2014-Jul-19 10:32N 50°37' W 001°04'0 0.1
2014-Jul-19 09:32N 50°37' W 001°05'4 3.9
2014-Jul-19 08:33N 50°37' W 000°59'1515.4
2014-Jul-19 07:34N 50°35' W 000°35'2914.6
2014-Jul-19 05:33N 50°34' E 000°11'1413.8
2014-Jul-19 04:33N 50°37' E 000°32'1212.3
2014-Jul-19 03:33N 50°44' E 000°49'2512.6
2014-Jul-19 01:33N 51°00' E 001°19'1616.0
2014-Jul-19 00:34N 51°10' E 001°38'1615.6
2014-Jul-18 23:34N 51°23' E 001°53'1414.2
2014-Jul-18 22:33N 51°34' E 002°08'1313.1
2014-Jul-18 21:33N 51°44' E 002°21'5211.9
2014-Jul-18 17:09N 52°04' E 003°40'813.1
2014-Jul-18 16:33N 52°03' E 003°53'1212.5
2014-Jul-18 15:33N 51°57' E 004°11'6 5.2
2014-Jul-18 14:29N 51°53' E 004°17'0 0.0
2014-Jul-18 13:32N 51°53' E 004°17'0 0.0
2014-Jul-18 12:29N 51°53' E 004°17'0 0.0
2014-Jul-18 11:32N 51°53' E 004°17'0 0.0
2014-Jul-18 10:32N 51°53' E 004°17'0 0.0
2014-Jul-18 09:32N 51°53' E 004°17'0 0.0
2014-Jul-18 08:32N 51°53' E 004°17'0 0.0
2014-Jul-18 07:32N 51°53' E 004°17'0 0.0
2014-Jul-18 06:32N 51°53' E 004°17'0 0.0
2014-Jul-18 05:29N 51°53' E 004°17'0 0.0
2014-Jul-18 04:32N 51°53' E 004°17'0 0.0
2014-Jul-18 03:32N 51°53' E 004°17'0 0.0
2014-Jul-18 02:29N 51°53' E 004°17'0 0.0
2014-Jul-18 01:29N 51°53' E 004°17'0 0.0
2014-Jul-18 00:29N 51°53' E 004°17'0 0.0
2014-Jul-17 23:29N 51°53' E 004°17'0 0.0
2014-Jul-17 22:29N 51°53' E 004°17'0 0.0
2014-Jul-17 21:29N 51°53' E 004°17'0 0.0
2014-Jul-17 20:32N 51°53' E 004°17'0 0.0
2014-Jul-17 19:32N 51°53' E 004°17'0 0.0
2014-Jul-17 18:29N 51°53' E 004°17'0 0.0
2014-Jul-17 17:23N 51°53' E 004°17'0 0.0
2014-Jul-17 16:32N 51°53' E 004°17'0 0.0
2014-Jul-17 15:32N 51°53' E 004°17'0 0.0
2014-Jul-17 14:32N 51°53' E 004°17'0 0.0
2014-Jul-17 13:32N 51°53' E 004°17'0 0.0
2014-Jul-17 12:23N 51°53' E 004°17'0 0.0
2014-Jul-17 11:29N 51°53' E 004°17'0 0.0
2014-Jul-17 10:32N 51°53' E 004°17'0 0.0
2014-Jul-17 09:32N 51°53' E 004°17'0 0.0
2014-Jul-17 08:32N 51°53' E 004°17'0 0.0
2014-Jul-17 07:32N 51°53' E 004°17'0 0.0
2014-Jul-17 06:32N 51°53' E 004°17'0 0.0
2014-Jul-17 05:32N 51°53' E 004°17'0 0.0
2014-Jul-17 04:23N 51°53' E 004°17'0 0.0
2014-Jul-17 03:29N 51°53' E 004°17'0 0.0
2014-Jul-17 02:32N 51°53' E 004°17'0 0.0
2014-Jul-17 01:32N 51°53' E 004°17'0 0.0
2014-Jul-17 00:32N 51°53' E 004°17'0 0.0
2014-Jul-16 23:29N 51°53' E 004°17'0 0.0
2014-Jul-16 22:32N 51°53' E 004°17'0 0.0
2014-Jul-16 21:32N 51°53' E 004°17'0 0.0
2014-Jul-16 20:29N 51°53' E 004°17'0 0.0
2014-Jul-16 19:32N 51°53' E 004°17'0 0.0
2014-Jul-16 18:23N 51°53' E 004°17'0 0.0
2014-Jul-16 17:26N 51°53' E 004°17'0 0.0
2014-Jul-16 16:32N 51°53' E 004°17'0 0.0
2014-Jul-16 15:29N 51°53' E 004°17'0 0.0
2014-Jul-16 14:29N 51°53' E 004°17'0 0.0
2014-Jul-16 13:29N 51°53' E 004°17'0 0.0
2014-Jul-16 12:26N 51°53' E 004°17'0 0.0
2014-Jul-16 11:26N 51°53' E 004°17'0 0.0
2014-Jul-16 10:29N 51°53' E 004°17'1 1.4
2014-Jul-16 09:34N 51°54' E 004°18'8 8.2
2014-Jul-16 08:34N 51°58' E 004°07'1010.2
2014-Jul-16 07:33N 52°01' E 003°51'1010.2
2014-Jul-16 06:32N 52°08' E 003°39'3 0.9
2014-Jul-16 03:22N 52°10' E 003°37'0 0.2
2014-Jul-16 02:31N 52°10' E 003°37'0 0.0
2014-Jul-16 01:31N 52°10' E 003°37'1 1.3
2014-Jul-16 00:30N 52°09' E 003°35'1010.4
2014-Jul-15 23:33N 52°11' E 003°19'1413.7
2014-Jul-15 22:32N 52°25' E 003°14'1515.1
2014-Jul-15 21:33N 52°40' E 003°13'39112.6
2014-Jul-14 14:24N 57°48' E 010°16'1213.8
2014-Jul-14 13:34N 57°49' E 010°37'1313.3
2014-Jul-14 12:33N 57°46' E 011°01'1413.9
2014-Jul-14 11:33N 57°40' E 011°25'1010.2
2014-Jul-14 10:33N 57°39' E 011°44'5 5.1
2014-Jul-14 09:32N 57°41' E 011°52'0 0.0
2014-Jul-14 08:32N 57°41' E 011°52'0 0.0
2014-Jul-14 07:29N 57°41' E 011°52'0 0.0
2014-Jul-14 06:29N 57°41' E 011°52'0 0.0
2014-Jul-14 05:32N 57°41' E 011°52'0 0.0
2014-Jul-14 04:32N 57°41' E 011°52'0 0.0
2014-Jul-14 03:32N 57°41' E 011°52'0 0.0
2014-Jul-14 02:32N 57°41' E 011°52'0 0.0
2014-Jul-14 01:32N 57°41' E 011°52'  

Dump ship's entire track history